Terminal Aerodrome Forecast
Issued by NWS Tampa Bay Area, FL

Home | Current Version | Previous Version | Text Only | Print | Product List | Glossary On
Versions: 1 2 3 4 5 6 7 8 9 10 11 12
000
FTUS42 KTBW 022342
TAFSRQ
TAF
KSRQ 022342Z 0300/0324 35006KT P6SM SCT120 BKN250
     FM030300 10004KT P6SM SCT250
     FM031600 22006KT P6SM VCTS SCT035CB SCT250
     FM032000 29008KT P6SM VCTS SCT045CB SCT120 BKN250=

USA.gov is the U.S. government's official web portal to all federal, state and local government web resources and services.